sensor_id;sensor_type;location;lat;lon;timestamp;P1;durP1;ratioP1;P2;durP2;ratioP2
20627;SDS011;10473;42.734;24.258;2024-03-08T00:00:40;20.90;;;9.82;;
20627;SDS011;10473;42.734;24.258;2024-03-08T00:03:08;21.63;;;9.05;;
20627;SDS011;10473;42.734;24.258;2024-03-08T00:05:35;18.15;;;8.63;;
20627;SDS011;10473;42.734;24.258;2024-03-08T00:08:04;19.02;;;8.35;;
20627;SDS011;10473;42.734;24.258;2024-03-08T00:10:30;14.25;;;6.32;;
20627;SDS011;10473;42.734;24.258;2024-03-08T00:12:55;21.48;;;9.98;;
20627;SDS011;10473;42.734;24.258;2024-03-08T00:15:23;13.82;;;8.02;;
20627;SDS011;10473;42.734;24.258;2024-03-08T00:17:49;24.02;;;11.63;;
20627;SDS011;10473;42.734;24.258;2024-03-08T00:20:18;12.73;;;7.72;;
20627;SDS011;10473;42.734;24.258;2024-03-08T00:22:44;10.90;;;6.13;;
20627;SDS011;10473;42.734;24.258;2024-03-08T00:25:10;13.73;;;8.40;;
20627;SDS011;10473;42.734;24.258;2024-03-08T00:27:38;8.02;;;6.68;;
20627;SDS011;10473;42.734;24.258;2024-03-08T00:30:04;21.05;;;14.80;;
20627;SDS011;10473;42.734;24.258;2024-03-08T00:32:30;13.07;;;9.85;;
20627;SDS011;10473;42.734;24.258;2024-03-08T00:34:57;8.30;;;6.47;;
20627;SDS011;10473;42.734;24.258;2024-03-08T00:37:25;5.55;;;3.58;;
20627;SDS011;10473;42.734;24.258;2024-03-08T00:39:51;6.90;;;5.43;;
20627;SDS011;10473;42.734;24.258;2024-03-08T00:42:17;9.07;;;5.20;;
20627;SDS011;10473;42.734;24.258;2024-03-08T00:44:43;5.05;;;4.50;;
20627;SDS011;10473;42.734;24.258;2024-03-08T00:47:09;6.38;;;5.82;;
20627;SDS011;10473;42.734;24.258;2024-03-08T00:49:35;4.90;;;4.50;;
20627;SDS011;10473;42.734;24.258;2024-03-08T00:52:04;4.25;;;3.50;;
20627;SDS011;10473;42.734;24.258;2024-03-08T00:54:36;4.50;;;4.05;;
20627;SDS011;10473;42.734;24.258;2024-03-08T00:57:02;4.93;;;4.50;;
20627;SDS011;10473;42.734;24.258;2024-03-08T00:59:31;4.38;;;3.85;;
20627;SDS011;10473;42.734;24.258;2024-03-08T01:01:58;4.63;;;4.22;;
20627;SDS011;10473;42.734;24.258;2024-03-08T01:04:25;6.38;;;4.72;;
20627;SDS011;10473;42.734;24.258;2024-03-08T01:06:54;6.30;;;5.10;;
20627;SDS011;10473;42.734;24.258;2024-03-08T01:09:21;4.32;;;3.92;;
20627;SDS011;10473;42.734;24.258;2024-03-08T01:11:48;4.43;;;4.07;;
20627;SDS011;10473;42.734;24.258;2024-03-08T01:14:14;7.75;;;4.63;;
20627;SDS011;10473;42.734;24.258;2024-03-08T01:16:40;5.75;;;5.22;;
20627;SDS011;10473;42.734;24.258;2024-03-08T01:19:06;5.88;;;5.38;;
20627;SDS011;10473;42.734;24.258;2024-03-08T01:21:32;6.85;;;5.72;;
20627;SDS011;10473;42.734;24.258;2024-03-08T01:24:00;4.78;;;2.97;;
20627;SDS011;10473;42.734;24.258;2024-03-08T01:26:26;4.55;;;4.00;;
20627;SDS011;10473;42.734;24.258;2024-03-08T01:28:51;11.65;;;7.25;;
20627;SDS011;10473;42.734;24.258;2024-03-08T01:31:17;6.95;;;5.50;;
20627;SDS011;10473;42.734;24.258;2024-03-08T01:33:42;7.03;;;6.13;;
20627;SDS011;10473;42.734;24.258;2024-03-08T01:36:08;8.43;;;6.03;;
20627;SDS011;10473;42.734;24.258;2024-03-08T01:38:33;10.70;;;7.32;;
20627;SDS011;10473;42.734;24.258;2024-03-08T01:40:59;11.85;;;6.68;;
20627;SDS011;10473;42.734;24.258;2024-03-08T01:43:25;10.05;;;7.05;;
20627;SDS011;10473;42.734;24.258;2024-03-08T01:45:57;11.02;;;6.68;;
20627;SDS011;10473;42.734;24.258;2024-03-08T01:48:25;8.30;;;4.65;;
20627;SDS011;10473;42.734;24.258;2024-03-08T01:50:51;7.68;;;5.50;;
20627;SDS011;10473;42.734;24.258;2024-03-08T01:53:19;7.20;;;6.40;;
20627;SDS011;10473;42.734;24.258;2024-03-08T01:55:46;5.45;;;4.88;;
20627;SDS011;10473;42.734;24.258;2024-03-08T01:58:15;7.07;;;5.15;;
20627;SDS011;10473;42.734;24.258;2024-03-08T02:00:43;6.72;;;4.80;;
20627;SDS011;10473;42.734;24.258;2024-03-08T02:03:11;6.47;;;4.13;;
20627;SDS011;10473;42.734;24.258;2024-03-08T02:05:40;6.88;;;5.05;;
20627;SDS011;10473;42.734;24.258;2024-03-08T02:08:06;8.55;;;6.28;;
20627;SDS011;10473;42.734;24.258;2024-03-08T02:10:33;9.93;;;6.70;;
20627;SDS011;10473;42.734;24.258;2024-03-08T02:12:59;8.13;;;6.25;;
20627;SDS011;10473;42.734;24.258;2024-03-08T02:15:26;5.10;;;4.50;;
20627;SDS011;10473;42.734;24.258;2024-03-08T02:18:12;6.22;;;4.80;;
20627;SDS011;10473;42.734;24.258;2024-03-08T02:20:38;5.00;;;4.50;;
20627;SDS011;10473;42.734;24.258;2024-03-08T02:23:03;6.50;;;4.90;;
20627;SDS011;10473;42.734;24.258;2024-03-08T02:25:30;5.45;;;4.93;;
20627;SDS011;10473;42.734;24.258;2024-03-08T02:27:56;4.97;;;4.32;;
20627;SDS011;10473;42.734;24.258;2024-03-08T02:30:21;4.63;;;3.97;;
20627;SDS011;10473;42.734;24.258;2024-03-08T02:32:47;6.45;;;5.10;;
20627;SDS011;10473;42.734;24.258;2024-03-08T02:35:12;5.07;;;4.57;;
20627;SDS011;10473;42.734;24.258;2024-03-08T02:37:38;8.23;;;5.22;;
20627;SDS011;10473;42.734;24.258;2024-03-08T02:40:03;6.95;;;4.97;;
20627;SDS011;10473;42.734;24.258;2024-03-08T02:42:30;6.35;;;4.72;;
20627;SDS011;10473;42.734;24.258;2024-03-08T02:44:56;5.35;;;4.25;;
20627;SDS011;10473;42.734;24.258;2024-03-08T02:47:21;6.53;;;4.93;;
20627;SDS011;10473;42.734;24.258;2024-03-08T02:49:47;5.40;;;4.90;;
20627;SDS011;10473;42.734;24.258;2024-03-08T02:52:12;6.40;;;4.70;;
20627;SDS011;10473;42.734;24.258;2024-03-08T02:54:38;5.13;;;4.45;;
20627;SDS011;10473;42.734;24.258;2024-03-08T02:57:03;4.57;;;3.60;;
20627;SDS011;10473;42.734;24.258;2024-03-08T02:59:29;7.20;;;4.07;;
20627;SDS011;10473;42.734;24.258;2024-03-08T03:01:54;8.15;;;4.90;;
20627;SDS011;10473;42.734;24.258;2024-03-08T03:04:20;7.50;;;5.82;;
20627;SDS011;10473;42.734;24.258;2024-03-08T03:06:46;7.63;;;5.60;;
20627;SDS011;10473;42.734;24.258;2024-03-08T03:09:11;11.15;;;8.93;;
20627;SDS011;10473;42.734;24.258;2024-03-08T03:11:38;7.40;;;6.10;;
20627;SDS011;10473;42.734;24.258;2024-03-08T03:14:04;7.18;;;6.47;;
20627;SDS011;10473;42.734;24.258;2024-03-08T03:16:29;9.05;;;7.75;;
20627;SDS011;10473;42.734;24.258;2024-03-08T03:18:55;8.13;;;5.97;;
20627;SDS011;10473;42.734;24.258;2024-03-08T03:21:22;5.07;;;4.53;;
20627;SDS011;10473;42.734;24.258;2024-03-08T03:23:47;7.97;;;5.85;;
20627;SDS011;10473;42.734;24.258;2024-03-08T03:26:13;6.35;;;5.03;;
20627;SDS011;10473;42.734;24.258;2024-03-08T03:28:42;7.68;;;6.05;;
20627;SDS011;10473;42.734;24.258;2024-03-08T03:31:08;6.05;;;4.65;;
20627;SDS011;10473;42.734;24.258;2024-03-08T03:33:39;8.88;;;5.78;;
20627;SDS011;10473;42.734;24.258;2024-03-08T03:36:05;10.07;;;6.50;;
20627;SDS011;10473;42.734;24.258;2024-03-08T03:38:31;9.15;;;5.38;;
20627;SDS011;10473;42.734;24.258;2024-03-08T03:40:57;9.68;;;5.88;;
20627;SDS011;10473;42.734;24.258;2024-03-08T03:43:29;10.52;;;6.18;;
20627;SDS011;10473;42.734;24.258;2024-03-08T03:45:54;8.98;;;5.95;;
20627;SDS011;10473;42.734;24.258;2024-03-08T03:48:20;7.53;;;5.80;;
20627;SDS011;10473;42.734;24.258;2024-03-08T03:50:46;10.57;;;6.22;;
20627;SDS011;10473;42.734;24.258;2024-03-08T03:53:12;10.85;;;7.18;;
20627;SDS011;10473;42.734;24.258;2024-03-08T03:55:38;17.08;;;7.35;;
20627;SDS011;10473;42.734;24.258;2024-03-08T03:58:04;10.38;;;7.03;;
20627;SDS011;10473;42.734;24.258;2024-03-08T04:00:29;15.88;;;6.97;;
20627;SDS011;10473;42.734;24.258;2024-03-08T04:02:55;8.13;;;5.93;;
20627;SDS011;10473;42.734;24.258;2024-03-08T04:05:24;9.93;;;6.93;;
20627;SDS011;10473;42.734;24.258;2024-03-08T04:07:49;8.55;;;5.05;;
20627;SDS011;10473;42.734;24.258;2024-03-08T04:10:15;10.52;;;9.45;;
20627;SDS011;10473;42.734;24.258;2024-03-08T04:12:40;7.72;;;5.80;;
20627;SDS011;10473;42.734;24.258;2024-03-08T04:15:06;9.18;;;6.95;;
20627;SDS011;10473;42.734;24.258;2024-03-08T04:17:32;16.35;;;8.75;;
20627;SDS011;10473;42.734;24.258;2024-03-08T04:20:02;13.02;;;8.93;;
20627;SDS011;10473;42.734;24.258;2024-03-08T04:22:34;11.90;;;7.03;;
20627;SDS011;10473;42.734;24.258;2024-03-08T04:25:01;15.85;;;7.93;;
20627;SDS011;10473;42.734;24.258;2024-03-08T04:27:27;18.08;;;12.50;;
20627;SDS011;10473;42.734;24.258;2024-03-08T04:29:52;16.67;;;11.13;;
20627;SDS011;10473;42.734;24.258;2024-03-08T04:32:18;19.83;;;13.38;;
20627;SDS011;10473;42.734;24.258;2024-03-08T04:34:43;16.95;;;9.60;;
20627;SDS011;10473;42.734;24.258;2024-03-08T04:37:09;19.35;;;8.98;;
20627;SDS011;10473;42.734;24.258;2024-03-08T04:39:38;11.63;;;6.93;;
20627;SDS011;10473;42.734;24.258;2024-03-08T04:42:06;13.05;;;6.90;;
20627;SDS011;10473;42.734;24.258;2024-03-08T04:44:35;24.77;;;13.35;;
20627;SDS011;10473;42.734;24.258;2024-03-08T04:47:02;12.15;;;6.03;;
20627;SDS011;10473;42.734;24.258;2024-03-08T04:49:28;10.77;;;7.22;;
20627;SDS011;10473;42.734;24.258;2024-03-08T04:51:54;9.77;;;6.30;;
20627;SDS011;10473;42.734;24.258;2024-03-08T04:54:19;10.70;;;6.18;;
20627;SDS011;10473;42.734;24.258;2024-03-08T04:56:45;8.93;;;5.55;;
20627;SDS011;10473;42.734;24.258;2024-03-08T04:59:11;9.45;;;5.90;;
20627;SDS011;10473;42.734;24.258;2024-03-08T05:01:36;8.50;;;5.95;;
20627;SDS011;10473;42.734;24.258;2024-03-08T05:04:03;6.13;;;4.20;;
20627;SDS011;10473;42.734;24.258;2024-03-08T05:06:29;8.65;;;5.63;;
20627;SDS011;10473;42.734;24.258;2024-03-08T05:08:55;10.43;;;6.18;;
20627;SDS011;10473;42.734;24.258;2024-03-08T05:11:21;13.07;;;5.75;;
20627;SDS011;10473;42.734;24.258;2024-03-08T05:13:46;28.13;;;12.75;;
20627;SDS011;10473;42.734;24.258;2024-03-08T05:16:12;12.93;;;8.45;;
20627;SDS011;10473;42.734;24.258;2024-03-08T05:18:40;11.40;;;7.10;;
20627;SDS011;10473;42.734;24.258;2024-03-08T05:21:07;26.83;;;12.25;;
20627;SDS011;10473;42.734;24.258;2024-03-08T05:23:34;39.38;;;14.77;;
20627;SDS011;10473;42.734;24.258;2024-03-08T05:26:00;27.25;;;11.52;;
20627;SDS011;10473;42.734;24.258;2024-03-08T05:28:26;11.40;;;6.22;;
20627;SDS011;10473;42.734;24.258;2024-03-08T05:30:51;21.92;;;8.65;;
20627;SDS011;10473;42.734;24.258;2024-03-08T05:33:17;15.75;;;8.50;;
20627;SDS011;10473;42.734;24.258;2024-03-08T05:35:44;20.60;;;9.63;;
20627;SDS011;10473;42.734;24.258;2024-03-08T05:38:10;38.53;;;12.95;;
20627;SDS011;10473;42.734;24.258;2024-03-08T05:40:38;33.15;;;10.70;;
20627;SDS011;10473;42.734;24.258;2024-03-08T05:43:03;17.58;;;10.93;;
20627;SDS011;10473;42.734;24.258;2024-03-08T05:45:29;18.83;;;9.15;;
20627;SDS011;10473;42.734;24.258;2024-03-08T05:47:54;16.33;;;10.02;;
20627;SDS011;10473;42.734;24.258;2024-03-08T05:50:20;17.17;;;8.55;;
20627;SDS011;10473;42.734;24.258;2024-03-08T05:52:45;16.17;;;8.60;;
20627;SDS011;10473;42.734;24.258;2024-03-08T05:55:12;13.80;;;7.30;;
20627;SDS011;10473;42.734;24.258;2024-03-08T05:57:39;13.55;;;7.07;;
20627;SDS011;10473;42.734;24.258;2024-03-08T06:00:13;10.05;;;6.55;;
20627;SDS011;10473;42.734;24.258;2024-03-08T06:02:40;10.45;;;8.40;;
20627;SDS011;10473;42.734;24.258;2024-03-08T06:05:10;20.15;;;8.50;;
20627;SDS011;10473;42.734;24.258;2024-03-08T06:07:36;29.05;;;9.18;;
20627;SDS011;10473;42.734;24.258;2024-03-08T06:10:05;14.63;;;8.23;;
20627;SDS011;10473;42.734;24.258;2024-03-08T06:12:35;28.23;;;11.15;;
20627;SDS011;10473;42.734;24.258;2024-03-08T06:15:07;23.20;;;9.38;;
20627;SDS011;10473;42.734;24.258;2024-03-08T06:17:34;47.22;;;16.15;;
20627;SDS011;10473;42.734;24.258;2024-03-08T06:20:01;32.72;;;12.63;;
20627;SDS011;10473;42.734;24.258;2024-03-08T06:22:26;12.50;;;6.78;;
20627;SDS011;10473;42.734;24.258;2024-03-08T06:24:53;18.73;;;7.45;;
20627;SDS011;10473;42.734;24.258;2024-03-08T06:27:19;26.50;;;12.85;;
20627;SDS011;10473;42.734;24.258;2024-03-08T06:29:45;12.00;;;6.07;;
20627;SDS011;10473;42.734;24.258;2024-03-08T06:32:10;14.55;;;7.78;;
20627;SDS011;10473;42.734;24.258;2024-03-08T06:34:36;9.38;;;6.60;;
20627;SDS011;10473;42.734;24.258;2024-03-08T06:37:01;8.70;;;6.85;;
20627;SDS011;10473;42.734;24.258;2024-03-08T06:39:27;6.40;;;4.95;;
20627;SDS011;10473;42.734;24.258;2024-03-08T06:41:56;5.93;;;4.07;;
20627;SDS011;10473;42.734;24.258;2024-03-08T06:44:22;8.27;;;4.57;;
20627;SDS011;10473;42.734;24.258;2024-03-08T06:46:48;15.15;;;8.50;;
20627;SDS011;10473;42.734;24.258;2024-03-08T06:49:14;11.05;;;6.13;;
20627;SDS011;10473;42.734;24.258;2024-03-08T06:51:40;4.68;;;4.28;;
20627;SDS011;10473;42.734;24.258;2024-03-08T06:54:06;20.10;;;9.30;;
20627;SDS011;10473;42.734;24.258;2024-03-08T06:56:34;19.23;;;11.52;;
20627;SDS011;10473;42.734;24.258;2024-03-08T06:59:00;20.83;;;11.93;;
20627;SDS011;10473;42.734;24.258;2024-03-08T07:01:28;17.20;;;10.70;;
20627;SDS011;10473;42.734;24.258;2024-03-08T07:03:57;9.05;;;6.03;;
20627;SDS011;10473;42.734;24.258;2024-03-08T07:06:23;6.18;;;4.30;;
20627;SDS011;10473;42.734;24.258;2024-03-08T07:08:48;14.45;;;10.68;;
20627;SDS011;10473;42.734;24.258;2024-03-08T07:11:14;3.78;;;3.47;;
20627;SDS011;10473;42.734;24.258;2024-03-08T07:13:44;15.32;;;9.73;;
20627;SDS011;10473;42.734;24.258;2024-03-08T07:16:10;9.07;;;5.93;;
20627;SDS011;10473;42.734;24.258;2024-03-08T07:18:37;19.75;;;11.52;;
20627;SDS011;10473;42.734;24.258;2024-03-08T07:21:05;17.00;;;11.63;;
20627;SDS011;10473;42.734;24.258;2024-03-08T07:23:30;7.22;;;5.82;;
20627;SDS011;10473;42.734;24.258;2024-03-08T07:26:15;3.92;;;3.60;;
20627;SDS011;10473;42.734;24.258;2024-03-08T07:28:41;13.40;;;8.38;;
20627;SDS011;10473;42.734;24.258;2024-03-08T07:31:06;4.22;;;3.92;;
20627;SDS011;10473;42.734;24.258;2024-03-08T07:33:37;6.72;;;6.13;;
20627;SDS011;10473;42.734;24.258;2024-03-08T07:36:03;5.97;;;4.00;;
20627;SDS011;10473;42.734;24.258;2024-03-08T07:38:30;6.80;;;5.15;;
20627;SDS011;10473;42.734;24.258;2024-03-08T07:40:55;4.28;;;3.88;;
20627;SDS011;10473;42.734;24.258;2024-03-08T07:43:22;2.55;;;2.45;;
20627;SDS011;10473;42.734;24.258;2024-03-08T07:45:48;2.30;;;2.20;;
20627;SDS011;10473;42.734;24.258;2024-03-08T07:48:13;2.67;;;2.47;;
20627;SDS011;10473;42.734;24.258;2024-03-08T07:50:40;3.83;;;3.53;;
20627;SDS011;10473;42.734;24.258;2024-03-08T07:53:06;2.22;;;2.10;;
20627;SDS011;10473;42.734;24.258;2024-03-08T07:55:32;2.35;;;2.15;;
20627;SDS011;10473;42.734;24.258;2024-03-08T07:58:03;2.78;;;2.55;;
20627;SDS011;10473;42.734;24.258;2024-03-08T08:00:32;31.05;;;13.80;;
20627;SDS011;10473;42.734;24.258;2024-03-08T08:02:57;9.15;;;5.25;;
20627;SDS011;10473;42.734;24.258;2024-03-08T08:05:23;3.47;;;3.13;;
20627;SDS011;10473;42.734;24.258;2024-03-08T08:07:48;3.03;;;2.83;;
20627;SDS011;10473;42.734;24.258;2024-03-08T08:10:15;2.80;;;2.60;;
20627;SDS011;10473;42.734;24.258;2024-03-08T08:12:47;3.13;;;2.85;;
20627;SDS011;10473;42.734;24.258;2024-03-08T08:15:15;3.22;;;3.03;;
20627;SDS011;10473;42.734;24.258;2024-03-08T08:17:41;2.70;;;2.50;;
20627;SDS011;10473;42.734;24.258;2024-03-08T08:20:08;2.35;;;2.25;;
20627;SDS011;10473;42.734;24.258;2024-03-08T08:22:35;3.10;;;2.90;;
20627;SDS011;10473;42.734;24.258;2024-03-08T08:25:01;4.03;;;2.63;;
20627;SDS011;10473;42.734;24.258;2024-03-08T08:27:27;31.33;;;21.17;;
20627;SDS011;10473;42.734;24.258;2024-03-08T08:29:52;17.92;;;11.90;;
20627;SDS011;10473;42.734;24.258;2024-03-08T08:32:18;4.32;;;3.72;;
20627;SDS011;10473;42.734;24.258;2024-03-08T08:34:44;2.78;;;2.58;;
20627;SDS011;10473;42.734;24.258;2024-03-08T08:37:09;2.65;;;2.45;;
20627;SDS011;10473;42.734;24.258;2024-03-08T08:39:35;2.20;;;2.05;;
20627;SDS011;10473;42.734;24.258;2024-03-08T08:42:01;5.47;;;4.97;;
20627;SDS011;10473;42.734;24.258;2024-03-08T08:44:28;3.85;;;3.55;;
20627;SDS011;10473;42.734;24.258;2024-03-08T08:46:54;3.05;;;2.85;;
20627;SDS011;10473;42.734;24.258;2024-03-08T08:49:19;24.23;;;16.17;;
20627;SDS011;10473;42.734;24.258;2024-03-08T08:51:49;6.22;;;3.97;;
20627;SDS011;10473;42.734;24.258;2024-03-08T08:54:15;3.92;;;3.55;;
20627;SDS011;10473;42.734;24.258;2024-03-08T08:56:42;3.97;;;3.58;;
20627;SDS011;10473;42.734;24.258;2024-03-08T08:59:12;2.40;;;2.30;;
20627;SDS011;10473;42.734;24.258;2024-03-08T09:01:44;2.78;;;2.35;;
20627;SDS011;10473;42.734;24.258;2024-03-08T09:04:12;6.38;;;5.78;;
20627;SDS011;10473;42.734;24.258;2024-03-08T09:06:38;3.22;;;3.03;;
20627;SDS011;10473;42.734;24.258;2024-03-08T09:09:06;2.92;;;2.75;;
20627;SDS011;10473;42.734;24.258;2024-03-08T09:11:36;3.13;;;2.92;;
20627;SDS011;10473;42.734;24.258;2024-03-08T09:14:06;3.47;;;2.70;;
20627;SDS011;10473;42.734;24.258;2024-03-08T09:16:32;3.50;;;3.17;;
20627;SDS011;10473;42.734;24.258;2024-03-08T09:18:58;2.75;;;2.65;;
20627;SDS011;10473;42.734;24.258;2024-03-08T09:21:24;3.08;;;2.88;;
20627;SDS011;10473;42.734;24.258;2024-03-08T09:23:51;3.58;;;3.28;;
20627;SDS011;10473;42.734;24.258;2024-03-08T09:26:17;3.50;;;3.20;;
20627;SDS011;10473;42.734;24.258;2024-03-08T09:28:42;13.90;;;7.30;;
20627;SDS011;10473;42.734;24.258;2024-03-08T09:31:08;17.58;;;11.15;;
20627;SDS011;10473;42.734;24.258;2024-03-08T09:33:37;2.78;;;2.58;;
20627;SDS011;10473;42.734;24.258;2024-03-08T09:36:05;4.32;;;3.92;;
20627;SDS011;10473;42.734;24.258;2024-03-08T09:38:32;2.53;;;2.03;;
20627;SDS011;10473;42.734;24.258;2024-03-08T09:40:59;3.22;;;2.83;;
20627;SDS011;10473;42.734;24.258;2024-03-08T09:43:27;4.50;;;3.15;;
20627;SDS011;10473;42.734;24.258;2024-03-08T09:45:53;2.95;;;2.75;;
20627;SDS011;10473;42.734;24.258;2024-03-08T09:48:20;2.35;;;2.25;;
20627;SDS011;10473;42.734;24.258;2024-03-08T09:50:47;1.80;;;1.70;;
20627;SDS011;10473;42.734;24.258;2024-03-08T09:53:13;24.05;;;17.38;;
20627;SDS011;10473;42.734;24.258;2024-03-08T09:55:38;2.92;;;2.58;;
20627;SDS011;10473;42.734;24.258;2024-03-08T09:58:13;3.45;;;3.15;;
20627;SDS011;10473;42.734;24.258;2024-03-08T10:00:43;6.25;;;5.65;;
20627;SDS011;10473;42.734;24.258;2024-03-08T10:03:09;3.22;;;2.42;;
20627;SDS011;10473;42.734;24.258;2024-03-08T10:05:36;3.15;;;2.95;;
20627;SDS011;10473;42.734;24.258;2024-03-08T10:08:02;2.30;;;2.20;;
20627;SDS011;10473;42.734;24.258;2024-03-08T10:10:28;2.15;;;1.98;;
20627;SDS011;10473;42.734;24.258;2024-03-08T10:12:54;1.90;;;1.80;;
20627;SDS011;10473;42.734;24.258;2024-03-08T10:15:21;2.80;;;2.30;;
20627;SDS011;10473;42.734;24.258;2024-03-08T10:17:46;4.85;;;4.07;;
20627;SDS011;10473;42.734;24.258;2024-03-08T10:20:18;3.53;;;3.33;;
20627;SDS011;10473;42.734;24.258;2024-03-08T10:22:44;8.25;;;4.35;;
20627;SDS011;10473;42.734;24.258;2024-03-08T10:25:10;5.38;;;3.50;;
20627;SDS011;10473;42.734;24.258;2024-03-08T10:27:39;3.88;;;3.55;;
20627;SDS011;10473;42.734;24.258;2024-03-08T10:30:10;5.57;;;3.58;;
20627;SDS011;10473;42.734;24.258;2024-03-08T10:32:39;1.55;;;1.45;;
20627;SDS011;10473;42.734;24.258;2024-03-08T10:35:06;4.97;;;1.73;;
20627;SDS011;10473;42.734;24.258;2024-03-08T10:37:34;3.45;;;2.80;;
20627;SDS011;10473;42.734;24.258;2024-03-08T10:40:06;2.22;;;2.13;;
20627;SDS011;10473;42.734;24.258;2024-03-08T10:42:41;2.08;;;1.98;;
20627;SDS011;10473;42.734;24.258;2024-03-08T10:47:52;5.13;;;4.03;;
20627;SDS011;10473;42.734;24.258;2024-03-08T10:50:24;2.53;;;2.42;;
20627;SDS011;10473;42.734;24.258;2024-03-08T10:52:51;2.28;;;2.17;;
20627;SDS011;10473;42.734;24.258;2024-03-08T10:55:17;1.45;;;1.45;;
20627;SDS011;10473;42.734;24.258;2024-03-08T10:57:45;2.15;;;2.05;;
20627;SDS011;10473;42.734;24.258;2024-03-08T11:00:16;3.05;;;2.78;;
20627;SDS011;10473;42.734;24.258;2024-03-08T11:02:45;3.00;;;1.90;;
20627;SDS011;10473;42.734;24.258;2024-03-08T11:05:15;2.55;;;2.35;;
20627;SDS011;10473;42.734;24.258;2024-03-08T11:10:51;1.77;;;1.67;;
20627;SDS011;10473;42.734;24.258;2024-03-08T11:13:32;3.78;;;3.58;;
20627;SDS011;10473;42.734;24.258;2024-03-08T11:16:01;5.82;;;4.00;;
20627;SDS011;10473;42.734;24.258;2024-03-08T11:18:33;6.05;;;5.60;;
20627;SDS011;10473;42.734;24.258;2024-03-08T11:21:03;6.32;;;5.82;;
20627;SDS011;10473;42.734;24.258;2024-03-08T11:26:00;4.60;;;4.38;;
20627;SDS011;10473;42.734;24.258;2024-03-08T11:28:26;2.65;;;2.55;;
20627;SDS011;10473;42.734;24.258;2024-03-08T11:33:27;2.10;;;2.00;;
20627;SDS011;10473;42.734;24.258;2024-03-08T11:36:12;1.83;;;1.77;;
20627;SDS011;10473;42.734;24.258;2024-03-08T11:38:47;1.83;;;1.73;;
20627;SDS011;10473;42.734;24.258;2024-03-08T11:41:24;2.55;;;2.45;;
20627;SDS011;10473;42.734;24.258;2024-03-08T11:43:52;1.73;;;1.63;;
20627;SDS011;10473;42.734;24.258;2024-03-08T11:46:30;2.65;;;2.55;;
20627;SDS011;10473;42.734;24.258;2024-03-08T11:48:56;2.67;;;2.53;;
20627;SDS011;10473;42.734;24.258;2024-03-08T11:51:21;2.55;;;2.45;;
20627;SDS011;10473;42.734;24.258;2024-03-08T11:53:50;1.48;;;1.38;;
20627;SDS011;10473;42.734;24.258;2024-03-08T11:56:15;4.75;;;3.97;;
20627;SDS011;10473;42.734;24.258;2024-03-08T11:58:41;3.17;;;2.97;;
20627;SDS011;10473;42.734;24.258;2024-03-08T12:01:26;5.05;;;4.55;;
20627;SDS011;10473;42.734;24.258;2024-03-08T12:03:53;8.45;;;7.50;;
20627;SDS011;10473;42.734;24.258;2024-03-08T12:06:20;16.08;;;9.55;;
20627;SDS011;10473;42.734;24.258;2024-03-08T12:08:46;2.63;;;2.53;;
20627;SDS011;10473;42.734;24.258;2024-03-08T12:11:18;2.50;;;2.30;;
20627;SDS011;10473;42.734;24.258;2024-03-08T12:16:19;3.25;;;2.92;;
20627;SDS011;10473;42.734;24.258;2024-03-08T12:18:48;3.22;;;3.00;;
20627;SDS011;10473;42.734;24.258;2024-03-08T12:21:17;9.20;;;4.88;;
20627;SDS011;10473;42.734;24.258;2024-03-08T12:23:46;3.92;;;3.20;;
20627;SDS011;10473;42.734;24.258;2024-03-08T12:26:23;13.73;;;8.55;;
20627;SDS011;10473;42.734;24.258;2024-03-08T12:28:49;2.25;;;2.15;;
20627;SDS011;10473;42.734;24.258;2024-03-08T12:31:18;2.40;;;2.20;;
20627;SDS011;10473;42.734;24.258;2024-03-08T12:33:53;5.55;;;5.15;;
20627;SDS011;10473;42.734;24.258;2024-03-08T12:36:24;2.53;;;2.33;;
20627;SDS011;10473;42.734;24.258;2024-03-08T12:38:50;4.63;;;4.43;;
20627;SDS011;10473;42.734;24.258;2024-03-08T12:41:17;2.80;;;2.67;;
20627;SDS011;10473;42.734;24.258;2024-03-08T12:43:46;4.03;;;3.03;;
20627;SDS011;10473;42.734;24.258;2024-03-08T12:46:20;2.85;;;2.65;;
20627;SDS011;10473;42.734;24.258;2024-03-08T12:48:51;2.53;;;1.92;;
20627;SDS011;10473;42.734;24.258;2024-03-08T12:51:18;2.95;;;2.85;;
20627;SDS011;10473;42.734;24.258;2024-03-08T12:53:45;4.07;;;2.95;;
20627;SDS011;10473;42.734;24.258;2024-03-08T12:56:12;2.72;;;2.53;;
20627;SDS011;10473;42.734;24.258;2024-03-08T12:58:40;2.70;;;2.50;;
20627;SDS011;10473;42.734;24.258;2024-03-08T13:01:05;2.15;;;2.05;;
20627;SDS011;10473;42.734;24.258;2024-03-08T13:03:34;2.05;;;1.95;;
20627;SDS011;10473;42.734;24.258;2024-03-08T13:06:03;1.58;;;1.48;;
20627;SDS011;10473;42.734;24.258;2024-03-08T13:08:36;2.30;;;2.10;;
20627;SDS011;10473;42.734;24.258;2024-03-08T13:11:06;2.92;;;2.72;;
20627;SDS011;10473;42.734;24.258;2024-03-08T13:13:39;5.38;;;4.82;;
20627;SDS011;10473;42.734;24.258;2024-03-08T13:16:08;3.20;;;2.92;;
20627;SDS011;10473;42.734;24.258;2024-03-08T13:18:34;3.13;;;2.92;;
20627;SDS011;10473;42.734;24.258;2024-03-08T13:21:00;3.45;;;3.15;;
20627;SDS011;10473;42.734;24.258;2024-03-08T13:23:32;3.67;;;3.47;;
20627;SDS011;10473;42.734;24.258;2024-03-08T13:25:58;3.50;;;3.30;;
20627;SDS011;10473;42.734;24.258;2024-03-08T13:28:24;3.53;;;3.30;;
20627;SDS011;10473;42.734;24.258;2024-03-08T13:30:55;3.78;;;3.58;;
20627;SDS011;10473;42.734;24.258;2024-03-08T13:33:23;2.90;;;2.80;;
20627;SDS011;10473;42.734;24.258;2024-03-08T13:35:49;2.08;;;1.85;;
20627;SDS011;10473;42.734;24.258;2024-03-08T13:38:16;3.10;;;2.95;;
20627;SDS011;10473;42.734;24.258;2024-03-08T13:40:43;3.40;;;3.20;;
20627;SDS011;10473;42.734;24.258;2024-03-08T13:43:08;3.75;;;3.45;;
20627;SDS011;10473;42.734;24.258;2024-03-08T13:45:34;5.20;;;4.80;;
20627;SDS011;10473;42.734;24.258;2024-03-08T13:48:03;4.03;;;3.72;;
20627;SDS011;10473;42.734;24.258;2024-03-08T13:50:32;5.25;;;4.85;;
20627;SDS011;10473;42.734;24.258;2024-03-08T13:52:57;5.90;;;5.35;;
20627;SDS011;10473;42.734;24.258;2024-03-08T13:55:23;4.38;;;4.07;;
20627;SDS011;10473;42.734;24.258;2024-03-08T13:57:52;4.30;;;3.95;;
20627;SDS011;10473;42.734;24.258;2024-03-08T14:00:18;5.72;;;4.53;;
20627;SDS011;10473;42.734;24.258;2024-03-08T14:02:48;6.45;;;4.90;;
20627;SDS011;10473;42.734;24.258;2024-03-08T14:05:14;4.45;;;4.13;;
20627;SDS011;10473;42.734;24.258;2024-03-08T14:07:41;6.45;;;5.78;;
20627;SDS011;10473;42.734;24.258;2024-03-08T14:10:07;6.25;;;5.20;;
20627;SDS011;10473;42.734;24.258;2024-03-08T14:12:35;13.05;;;7.45;;
20627;SDS011;10473;42.734;24.258;2024-03-08T14:15:01;9.23;;;6.45;;
20627;SDS011;10473;42.734;24.258;2024-03-08T14:17:31;9.43;;;6.40;;
20627;SDS011;10473;42.734;24.258;2024-03-08T14:19:57;5.18;;;4.68;;
20627;SDS011;10473;42.734;24.258;2024-03-08T14:22:22;5.68;;;5.18;;
20627;SDS011;10473;42.734;24.258;2024-03-08T14:24:48;6.30;;;5.70;;
20627;SDS011;10473;42.734;24.258;2024-03-08T14:27:15;4.05;;;3.75;;
20627;SDS011;10473;42.734;24.258;2024-03-08T14:29:42;4.28;;;3.88;;
20627;SDS011;10473;42.734;24.258;2024-03-08T14:32:08;3.72;;;3.13;;
20627;SDS011;10473;42.734;24.258;2024-03-08T14:34:35;4.63;;;4.20;;
20627;SDS011;10473;42.734;24.258;2024-03-08T14:37:01;5.00;;;4.43;;
20627;SDS011;10473;42.734;24.258;2024-03-08T14:39:30;11.82;;;5.70;;
20627;SDS011;10473;42.734;24.258;2024-03-08T14:41:58;5.13;;;4.68;;
20627;SDS011;10473;42.734;24.258;2024-03-08T14:44:25;4.43;;;2.95;;